createdAt,value
2023-05-13T00:00:46.439Z,50.73
2023-05-13T00:01:46.483Z,50.15
2023-05-13T00:02:46.614Z,50.17
2023-05-13T00:03:46.703Z,50.15
2023-05-13T00:04:46.610Z,50.24
2023-05-13T00:05:46.654Z,50.24
2023-05-13T00:06:46.642Z,49.67
2023-05-13T00:07:46.680Z,50.15
2023-05-13T00:08:46.711Z,50.05
2023-05-13T00:09:46.748Z,50.15
2023-05-13T00:10:46.780Z,50.24
2023-05-13T00:11:46.814Z,50.53
2023-05-13T00:12:46.852Z,50.24
2023-05-13T00:13:46.883Z,50.43
2023-05-13T00:14:46.923Z,50.82
2023-05-13T00:15:46.957Z,50.05
2023-05-13T00:16:47.053Z,50.05
2023-05-13T00:17:47.066Z,50.73
2023-05-13T00:18:47.100Z,50.53
2023-05-13T00:19:47.089Z,50.43
2023-05-13T00:20:47.123Z,50.82
2023-05-13T00:21:47.177Z,51.01
2023-05-13T00:22:47.190Z,50.92
2023-05-13T00:23:47.229Z,50.53
2023-05-13T00:24:47.261Z,51.01
2023-05-13T00:25:47.301Z,51.01
2023-05-13T00:26:47.330Z,50.73
2023-05-13T00:27:47.359Z,51.01
2023-05-13T00:28:47.402Z,50.53
2023-05-13T00:29:47.428Z,51.10
2023-05-13T00:30:47.467Z,51.20
2023-05-13T00:31:47.609Z,50.92
2023-05-13T00:32:47.544Z,50.63
2023-05-13T00:33:47.569Z,51.10
2023-05-13T00:34:47.604Z,50.92
2023-05-13T00:35:47.636Z,51.20
2023-05-13T00:36:47.675Z,51.78
2023-05-13T00:37:47.708Z,51.30
2023-05-13T00:38:47.739Z,51.20
2023-05-13T00:39:47.768Z,51.20
2023-05-13T00:40:47.809Z,51.20
2023-05-13T00:41:47.836Z,51.87
2023-05-13T00:42:47.965Z,51.87
2023-05-13T00:43:48.009Z,51.95
2023-05-13T00:44:47.987Z,51.87
2023-05-13T00:45:48.065Z,51.59
2023-05-13T00:46:48.040Z,51.59
2023-05-13T00:47:48.170Z,51.40
2023-05-13T00:48:48.081Z,51.85
2023-05-13T00:49:48.110Z,51.59
2023-05-13T00:50:48.146Z,51.59
2023-05-13T00:51:48.178Z,51.97
2023-05-13T00:52:48.222Z,51.56
2023-05-13T00:53:48.254Z,51.68
2023-05-13T00:54:48.279Z,51.87
2023-05-13T00:55:48.322Z,51.65
2023-05-13T00:56:48.352Z,52.16
2023-05-13T00:57:48.382Z,51.97
2023-05-13T00:58:48.420Z,51.95
2023-05-13T00:59:48.451Z,52.07
2023-05-13T01:00:48.533Z,51.97
2023-05-13T01:01:48.522Z,51.95
2023-05-13T01:02:48.590Z,51.85
2023-05-13T01:03:48.587Z,51.95
2023-05-13T01:04:48.621Z,51.85
2023-05-13T01:05:48.656Z,51.85
2023-05-13T01:06:48.710Z,51.65
2023-05-13T01:07:48.725Z,51.75
2023-05-13T01:08:48.756Z,51.85
2023-05-13T01:09:48.797Z,51.75
2023-05-13T01:10:48.822Z,51.97
2023-05-13T01:11:48.855Z,51.85
2023-05-13T01:12:48.891Z,51.95
2023-05-13T01:13:48.925Z,51.85
2023-05-13T01:14:48.955Z,51.95
2023-05-13T01:15:48.989Z,51.85
2023-05-13T01:16:49.100Z,51.95
2023-05-13T01:17:49.059Z,51.85
2023-05-13T01:18:49.118Z,51.85
2023-05-13T01:19:49.117Z,52.14
2023-05-13T01:20:49.158Z,51.75
2023-05-13T01:21:49.183Z,51.46
2023-05-13T01:22:49.220Z,51.65
2023-05-13T01:23:49.252Z,52.04
2023-05-13T01:24:49.287Z,51.75
2023-05-13T01:25:49.332Z,51.95
2023-05-13T01:26:49.365Z,51.95
2023-05-13T01:27:49.384Z,52.33
2023-05-13T01:28:49.425Z,52.33
2023-05-13T01:29:49.456Z,52.42
2023-05-13T01:30:49.559Z,51.95
2023-05-13T01:31:49.521Z,52.52
2023-05-13T01:32:49.596Z,52.52
2023-05-13T01:33:49.595Z,52.23
2023-05-13T01:34:49.643Z,52.52
2023-05-13T01:35:49.672Z,52.33
2023-05-13T01:36:49.695Z,52.33
2023-05-13T01:37:49.733Z,51.95
2023-05-13T01:38:49.768Z,52.14
2023-05-13T01:39:49.804Z,52.04
2023-05-13T01:40:49.826Z,52.42
2023-05-13T01:41:49.868Z,52.42
2023-05-13T01:42:49.899Z,52.52
2023-05-13T01:43:49.931Z,52.33
2023-05-13T01:44:49.968Z,52.14
2023-05-13T01:45:49.998Z,52.23
2023-05-13T01:46:50.087Z,52.62
2023-05-13T01:47:50.115Z,52.42
2023-05-13T01:48:50.101Z,52.91
2023-05-13T01:49:50.134Z,52.23
2023-05-13T01:50:50.175Z,52.91
2023-05-13T01:51:50.203Z,52.42
2023-05-13T01:52:50.235Z,52.62
2023-05-13T01:53:50.266Z,52.52
2023-05-13T01:54:50.310Z,52.71
2023-05-13T01:55:50.343Z,52.33
2023-05-13T01:56:50.379Z,52.91
2023-05-13T01:57:50.407Z,52.91
2023-05-13T01:58:50.444Z,53.00
2023-05-13T01:59:50.468Z,52.91
2023-05-13T02:00:50.503Z,52.91
2023-05-13T02:01:50.578Z,52.81
2023-05-13T02:02:50.664Z,52.81
2023-05-13T02:03:50.661Z,53.28
2023-05-13T02:04:50.647Z,52.71
2023-05-13T02:05:50.687Z,52.87
2023-05-13T02:06:50.704Z,52.87
2023-05-13T02:07:50.739Z,53.36
2023-05-13T02:08:50.780Z,52.87
2023-05-13T02:09:50.806Z,52.78
2023-05-13T02:10:50.856Z,53.55
2023-05-13T02:11:50.884Z,53.93
2023-05-13T02:12:50.909Z,53.74
2023-05-13T02:13:50.966Z,53.55
2023-05-13T02:14:50.993Z,53.74
2023-05-13T02:15:51.014Z,53.64
2023-05-13T02:16:51.183Z,54.03
2023-05-13T02:17:51.108Z,53.93
2023-05-13T02:18:51.185Z,53.55
2023-05-13T02:19:51.151Z,53.93
2023-05-13T02:20:51.188Z,54.50
2023-05-13T02:21:51.212Z,53.83
2023-05-13T02:22:51.255Z,53.93
2023-05-13T02:23:51.279Z,53.64
2023-05-13T02:24:51.324Z,53.83
2023-05-13T02:25:51.366Z,53.93
2023-05-13T02:26:51.418Z,53.64
2023-05-13T02:27:51.418Z,53.83
2023-05-13T02:28:51.449Z,53.64
2023-05-13T02:29:51.482Z,54.22
2023-05-13T02:30:51.515Z,54.03
2023-05-13T02:31:51.599Z,54.60
2023-05-13T02:32:51.623Z,54.70
2023-05-13T02:33:51.628Z,54.60
2023-05-13T02:34:51.650Z,55.08
2023-05-13T02:35:51.689Z,54.32
2023-05-13T02:36:51.722Z,54.89
2023-05-13T02:37:51.759Z,54.57
2023-05-13T02:38:51.786Z,55.08
2023-05-13T02:39:51.822Z,54.70
2023-05-13T02:40:51.854Z,55.18
2023-05-13T02:41:51.898Z,54.70
2023-05-13T02:42:51.918Z,54.50
2023-05-13T02:43:51.966Z,54.86
2023-05-13T02:44:51.984Z,54.70
2023-05-13T02:45:52.058Z,54.70
2023-05-13T02:46:52.052Z,54.57
2023-05-13T02:47:52.121Z,54.79
2023-05-13T02:48:52.126Z,54.79
2023-05-13T02:49:52.161Z,54.89
2023-05-13T02:50:52.187Z,54.60
2023-05-13T02:51:52.224Z,54.60
2023-05-13T02:52:52.275Z,54.70
2023-05-13T02:53:52.295Z,54.70
2023-05-13T02:54:52.415Z,54.99
2023-05-13T02:55:52.390Z,54.60
2023-05-13T02:56:52.391Z,54.89
2023-05-13T02:57:52.480Z,54.41
2023-05-13T02:58:52.460Z,54.96
2023-05-13T02:59:52.493Z,54.60
2023-05-13T03:00:52.525Z,54.60
2023-05-13T03:01:52.574Z,54.60
2023-05-13T03:02:52.723Z,54.67
2023-05-13T03:03:52.623Z,54.57
2023-05-13T03:04:52.658Z,54.89
2023-05-13T03:05:52.694Z,54.67
2023-05-13T03:06:52.727Z,54.86
2023-05-13T03:07:52.759Z,55.18
2023-05-13T03:08:52.800Z,55.15
2023-05-13T03:09:52.827Z,55.24
2023-05-13T03:10:52.866Z,55.24
2023-05-13T03:11:52.895Z,55.24
2023-05-13T03:12:52.946Z,55.15
2023-05-13T03:13:52.960Z,55.34
2023-05-13T03:14:52.993Z,54.67
2023-05-13T03:15:53.064Z,54.86
2023-05-13T03:16:53.063Z,54.96
2023-05-13T03:17:53.188Z,54.96
2023-05-13T03:18:53.191Z,55.44
2023-05-13T03:19:53.164Z,55.05
2023-05-13T03:20:53.208Z,54.77
2023-05-13T03:21:53.240Z,54.57
2023-05-13T03:22:53.260Z,54.67
2023-05-13T03:23:53.312Z,54.86
2023-05-13T03:24:53.335Z,54.38
2023-05-13T03:25:53.364Z,54.48
2023-05-13T03:26:53.398Z,54.28
2023-05-13T03:27:53.435Z,54.48
2023-05-13T03:28:53.460Z,54.48
2023-05-13T03:29:53.499Z,54.38
2023-05-13T03:30:53.534Z,54.48
2023-05-13T03:31:53.615Z,54.48
2023-05-13T03:32:53.720Z,54.57
2023-05-13T03:33:53.647Z,54.00
2023-05-13T03:34:53.657Z,54.38
2023-05-13T03:35:53.692Z,54.38
2023-05-13T03:36:53.728Z,54.38
2023-05-13T03:37:53.767Z,54.48
2023-05-13T03:38:53.793Z,54.67
2023-05-13T03:39:53.828Z,54.96
2023-05-13T03:40:53.856Z,54.96
2023-05-13T03:41:53.902Z,54.28
2023-05-13T03:42:53.940Z,54.77
2023-05-13T03:43:53.958Z,54.67
2023-05-13T03:44:54.000Z,54.48
2023-05-13T03:45:54.029Z,54.67
2023-05-13T03:46:54.186Z,54.77
2023-05-13T03:47:54.153Z,54.57
2023-05-13T03:48:54.133Z,54.67
2023-05-13T03:49:54.164Z,54.86
2023-05-13T03:50:54.203Z,54.77
2023-05-13T03:51:54.242Z,54.77
2023-05-13T03:52:54.268Z,54.67
2023-05-13T03:53:54.310Z,54.67
2023-05-13T03:54:54.324Z,54.86
2023-05-13T03:55:54.365Z,54.48
2023-05-13T03:56:54.409Z,54.28
2023-05-13T03:57:54.429Z,54.19
2023-05-13T03:58:54.459Z,54.57
2023-05-13T03:59:54.496Z,54.48
2023-05-13T04:00:54.526Z,54.48
2023-05-13T04:01:54.626Z,54.48
2023-05-13T04:02:54.696Z,54.28
2023-05-13T04:03:54.626Z,54.77
2023-05-13T04:04:54.732Z,54.57
2023-05-13T04:05:54.698Z,54.86
2023-05-13T04:06:54.734Z,55.15
2023-05-13T04:07:54.804Z,55.15
2023-05-13T04:08:54.801Z,54.57
2023-05-13T04:09:54.834Z,55.05
2023-05-13T04:10:54.855Z,54.96
2023-05-13T04:11:54.902Z,54.67
2023-05-13T04:12:54.934Z,54.67
2023-05-13T04:13:54.974Z,54.77
2023-05-13T04:14:55.013Z,54.86
2023-05-13T04:15:55.027Z,54.57
2023-05-13T04:16:55.085Z,54.57
2023-05-13T04:17:55.127Z,55.05
2023-05-13T04:18:55.191Z,54.96
2023-05-13T04:19:55.160Z,55.15
2023-05-13T04:20:55.195Z,54.57
2023-05-13T04:21:55.234Z,54.57
2023-05-13T04:22:55.258Z,54.86
2023-05-13T04:23:55.291Z,54.57
2023-05-13T04:24:55.326Z,54.86
2023-05-13T04:25:55.384Z,54.77
2023-05-13T04:26:55.395Z,55.34
2023-05-13T04:27:55.432Z,55.24
2023-05-13T04:28:55.471Z,55.63
2023-05-13T04:29:55.500Z,55.24
2023-05-13T04:30:55.525Z,55.24
2023-05-13T04:31:55.617Z,55.24
2023-05-13T04:32:55.619Z,55.05
2023-05-13T04:33:55.635Z,55.15
2023-05-13T04:34:55.660Z,54.86
2023-05-13T04:35:55.692Z,55.53
2023-05-13T04:36:55.721Z,55.15
2023-05-13T04:37:55.764Z,55.24
2023-05-13T04:38:55.789Z,55.24
2023-05-13T04:39:55.822Z,55.15
2023-05-13T04:40:55.854Z,55.15
2023-05-13T04:41:55.897Z,55.05
2023-05-13T04:42:55.926Z,55.05
2023-05-13T04:43:55.961Z,55.34
2023-05-13T04:44:55.990Z,55.05
2023-05-13T04:45:56.083Z,54.67
2023-05-13T04:46:56.057Z,54.57
2023-05-13T04:47:57.741Z,54.57
2023-05-13T04:48:56.120Z,54.67
2023-05-13T04:49:56.155Z,54.67
2023-05-13T04:50:56.188Z,54.67
2023-05-13T04:51:56.221Z,54.48
2023-05-13T04:52:56.262Z,54.96
2023-05-13T04:54:03.468Z,54.67
2023-05-13T04:56:00.354Z,54.96
2023-05-13T04:57:00.378Z,54.67
2023-05-13T04:59:04.434Z,54.86
2023-05-13T05:00:04.536Z,54.03
2023-05-13T05:02:09.544Z,54.22
2023-05-13T05:03:09.583Z,54.32
2023-05-13T05:05:14.651Z,54.10
2023-05-13T05:06:13.680Z,53.74
2023-05-13T05:08:17.754Z,54.03
2023-05-13T05:09:17.765Z,53.64
2023-05-13T05:11:10.920Z,54.12
2023-05-13T05:12:10.949Z,54.03
2023-05-13T05:14:04.012Z,54.03
2023-05-13T05:15:03.987Z,53.83
2023-05-13T05:17:08.100Z,53.83
2023-05-13T05:18:08.515Z,53.83
2023-05-13T05:20:12.116Z,53.64
2023-05-13T05:21:12.154Z,53.64
2023-05-13T05:23:16.208Z,53.45
2023-05-13T05:24:16.236Z,53.36
2023-05-13T05:26:20.326Z,53.07
2023-05-13T05:27:20.349Z,53.16
2023-05-13T05:29:13.486Z,52.97
2023-05-13T05:30:13.517Z,53.16
2023-05-13T05:32:17.597Z,52.91
2023-05-13T05:33:17.617Z,53.19
2023-05-13T05:35:21.698Z,53.28
2023-05-13T05:36:21.702Z,52.71
2023-05-13T05:38:26.364Z,53.00
2023-05-13T05:39:25.965Z,52.71
2023-05-13T05:41:20.140Z,53.28
2023-05-13T05:42:20.163Z,54.34
2023-05-13T05:44:13.161Z,54.53
2023-05-13T05:45:13.193Z,53.50
2023-05-13T05:47:17.291Z,52.83
2023-05-13T05:48:17.280Z,53.41
2023-05-13T05:50:21.542Z,52.93
2023-05-13T05:51:21.381Z,52.55
2023-05-13T05:53:25.449Z,53.12
2023-05-13T05:54:25.491Z,53.12
2023-05-13T05:56:18.658Z,52.57
2023-05-13T05:57:18.670Z,51.87
2023-05-13T05:59:22.726Z,51.30
2023-05-13T06:00:23.097Z,50.94
2023-05-13T06:02:16.014Z,49.79
2023-05-13T06:03:16.106Z,49.98
2023-05-13T06:05:09.107Z,49.41
2023-05-13T06:06:09.125Z,49.21
2023-05-13T06:08:13.208Z,48.74
2023-05-13T06:09:13.224Z,48.64
2023-05-13T06:11:06.423Z,49.12
2023-05-13T06:12:06.419Z,49.31
2023-05-13T06:13:59.385Z,48.95
2023-05-13T06:14:59.417Z,48.76
2023-05-13T06:17:03.488Z,48.28
2023-05-13T06:18:03.614Z,47.99
2023-05-13T06:20:07.632Z,47.80
2023-05-13T06:21:07.609Z,47.89
2023-05-13T06:23:00.913Z,47.71
2023-05-13T06:24:00.943Z,47.61
2023-05-13T06:25:54.128Z,47.51
2023-05-13T06:26:54.133Z,47.03
2023-05-13T06:28:47.159Z,47.34
2023-05-13T06:29:47.191Z,46.96
2023-05-13T06:31:51.307Z,46.58
2023-05-13T06:33:00.716Z,46.48
2023-05-13T06:34:44.295Z,46.48
2023-05-13T06:35:44.320Z,45.81
2023-05-13T06:37:48.378Z,45.52
2023-05-13T06:38:48.399Z,45.90
2023-05-13T06:40:41.557Z,45.90
2023-05-13T06:41:41.598Z,46.41
2023-05-13T06:43:45.683Z,45.83
2023-05-13T06:44:45.679Z,45.73
2023-05-13T06:46:38.853Z,45.15
2023-05-13T06:47:38.918Z,45.64
2023-05-13T06:49:42.930Z,45.15
2023-05-13T06:50:42.962Z,44.96
2023-05-13T06:52:36.122Z,44.87
2023-05-13T06:53:36.180Z,44.20
2023-05-13T06:55:29.330Z,44.38
2023-05-13T06:56:29.353Z,44.00
2023-05-13T06:58:22.518Z,43.81
2023-05-13T06:59:22.552Z,43.91
2023-05-13T07:01:15.809Z,45.18
2023-05-13T07:02:15.750Z,45.56
2023-05-13T07:04:08.794Z,45.18
2023-05-13T07:05:11.021Z,45.18
2023-05-13T07:07:12.798Z,44.70
2023-05-13T07:08:12.828Z,44.41
2023-05-13T07:10:06.035Z,44.62
2023-05-13T07:11:06.022Z,44.89
2023-05-13T07:12:59.197Z,43.85
2023-05-13T07:13:59.216Z,43.18
2023-05-13T07:15:52.378Z,43.28
2023-05-13T07:16:52.468Z,43.66
2023-05-13T07:18:56.510Z,43.66
2023-05-13T07:19:56.535Z,43.85
2023-05-13T07:22:00.573Z,42.32
2023-05-13T07:23:00.598Z,42.41
2023-05-13T07:24:53.568Z,42.05
2023-05-13T07:25:53.610Z,41.76
2023-05-13T07:27:46.761Z,40.89
2023-05-13T07:28:46.792Z,40.99
2023-05-13T07:30:40.026Z,40.31
2023-05-13T07:31:39.988Z,40.34
2023-05-13T07:33:44.065Z,39.56
2023-05-13T07:34:44.079Z,38.99
2023-05-13T07:36:48.139Z,38.31
2023-05-13T07:37:48.180Z,38.51
2023-05-13T07:39:52.253Z,38.24
2023-05-13T07:40:52.272Z,37.83
2023-05-13T07:42:56.352Z,36.51
2023-05-13T07:43:56.371Z,36.69
2023-05-13T07:45:49.558Z,36.41
2023-05-13T07:46:49.626Z,36.41
2023-05-13T07:48:42.727Z,35.83
2023-05-13T07:49:42.760Z,36.69
2023-05-13T07:51:35.796Z,35.75
2023-05-13T07:52:35.831Z,35.56
2023-05-13T07:54:28.822Z,36.43
2023-05-13T07:55:28.849Z,36.61
2023-05-13T07:57:22.089Z,35.85
2023-05-13T07:58:22.108Z,37.79
2023-05-13T08:00:15.306Z,37.89
2023-05-13T08:01:15.309Z,37.12
2023-05-13T08:03:08.473Z,39.62
2023-05-13T08:04:08.475Z,39.54
2023-05-13T08:06:01.386Z,38.10
2023-05-13T08:07:01.412Z,39.26
2023-05-13T08:08:54.583Z,37.43
2023-05-13T08:09:54.618Z,37.62
2023-05-13T08:11:47.960Z,36.27
2023-05-13T08:12:47.981Z,37.33
2023-05-13T08:14:52.103Z,36.85
2023-05-13T08:15:52.104Z,37.43
2023-05-13T08:17:45.335Z,36.67
2023-05-13T08:18:45.364Z,35.61
2023-05-13T08:20:49.410Z,37.63
2023-05-13T08:21:49.419Z,38.12
2023-05-13T08:23:45.901Z,36.48
2023-05-13T08:24:42.628Z,37.73
2023-05-13T08:26:36.548Z,37.65
2023-05-13T08:27:35.831Z,36.59
2023-05-13T08:29:39.970Z,36.01
2023-05-13T08:30:39.972Z,34.86
2023-05-13T08:32:33.017Z,35.05
2023-05-13T08:33:32.999Z,35.53
2023-05-13T08:35:26.045Z,34.78
2023-05-13T08:36:26.072Z,33.80
2023-05-13T08:38:19.317Z,35.06
2023-05-13T08:39:19.346Z,33.52
2023-05-13T08:41:12.492Z,31.78
2023-05-13T08:42:12.516Z,31.40
2023-05-13T08:44:05.492Z,31.59
2023-05-13T08:45:05.577Z,30.91
2023-05-13T08:47:09.634Z,30.72
2023-05-13T08:48:09.691Z,30.52
2023-05-13T08:50:02.936Z,31.02
2023-05-13T08:51:02.955Z,30.83
2023-05-13T08:52:56.178Z,30.44
2023-05-13T08:53:56.153Z,30.83
2023-05-13T08:55:49.321Z,29.38
2023-05-13T08:56:49.358Z,29.57
2023-05-13T08:58:54.012Z,29.08
2023-05-13T08:59:53.650Z,29.27
2023-05-13T09:01:46.820Z,29.46
2023-05-13T09:02:46.865Z,29.96
2023-05-13T09:04:40.425Z,29.96
2023-05-13T09:05:40.326Z,29.96
2023-05-13T09:07:33.207Z,29.59
2023-05-13T09:08:33.248Z,29.20
2023-05-13T09:10:26.433Z,28.52
2023-05-13T09:11:26.461Z,28.43
2023-05-13T09:13:30.517Z,28.14
2023-05-13T09:14:30.565Z,28.72
2023-05-13T09:16:23.783Z,27.66
2023-05-13T09:17:23.769Z,28.04
2023-05-13T09:19:16.802Z,28.43
2023-05-13T09:20:16.791Z,28.14
2023-05-13T09:22:20.888Z,28.23
2023-05-13T09:23:20.910Z,28.04
2023-05-13T09:25:14.075Z,27.76
2023-05-13T09:26:14.105Z,27.86
2023-05-13T09:28:18.155Z,28.05
2023-05-13T09:29:18.194Z,27.76
2023-05-13T09:31:11.439Z,27.37
2023-05-13T09:32:11.393Z,27.68
2023-05-13T09:34:04.368Z,27.87
2023-05-13T09:35:04.402Z,27.20
2023-05-13T09:37:08.526Z,26.82
2023-05-13T09:38:08.509Z,26.92
2023-05-13T09:40:01.705Z,26.92
2023-05-13T09:41:01.725Z,26.73
2023-05-13T09:42:54.867Z,27.21
2023-05-13T09:43:54.913Z,27.01
2023-05-13T09:45:59.019Z,27.03
2023-05-13T09:46:59.080Z,27.13
2023-05-13T09:49:03.701Z,26.93
2023-05-13T09:50:03.325Z,27.04
2023-05-13T09:52:07.373Z,26.56
2023-05-13T09:53:07.405Z,26.65
2023-05-13T09:55:00.375Z,25.49
2023-05-13T09:56:00.457Z,25.40
2023-05-13T09:57:53.579Z,25.12
2023-05-13T09:58:53.651Z,25.21
2023-05-13T10:00:47.123Z,25.60
2023-05-13T10:01:46.968Z,25.79
2023-05-13T10:03:40.010Z,25.70
2023-05-13T10:04:40.014Z,25.41
2023-05-13T10:06:33.216Z,24.24
2023-05-13T10:07:33.231Z,23.76
2023-05-13T10:09:26.972Z,23.47
2023-05-13T10:10:26.808Z,23.86
2023-05-13T10:12:19.914Z,23.87
2023-05-13T10:13:19.942Z,23.58
2023-05-13T10:15:13.107Z,23.28
2023-05-13T10:16:13.207Z,23.20
2023-05-13T10:18:17.291Z,22.91
2023-05-13T10:19:17.345Z,22.31
2023-05-13T10:21:10.397Z,22.12
2023-05-13T10:22:10.431Z,22.51
2023-05-13T10:24:03.459Z,22.42
2023-05-13T10:25:03.450Z,22.23
2023-05-13T10:26:56.611Z,21.84
2023-05-13T10:27:56.647Z,21.65
2023-05-13T10:29:49.811Z,21.56
2023-05-13T10:30:49.870Z,21.75
2023-05-13T10:32:42.923Z,22.24
2023-05-13T10:33:42.908Z,22.05
2023-05-13T10:35:38.047Z,22.44
2023-05-13T10:36:35.943Z,22.35
2023-05-13T10:38:40.053Z,21.67
2023-05-13T10:39:40.077Z,21.77
2023-05-13T10:41:33.300Z,21.97
2023-05-13T10:42:33.321Z,21.97
2023-05-13T10:43:33.363Z,21.97
2023-05-13T10:44:33.407Z,21.29
2023-05-13T10:45:33.449Z,21.78
2023-05-13T10:46:33.508Z,21.58
2023-05-13T10:47:33.705Z,21.57
2023-05-13T10:48:33.559Z,21.00
2023-05-13T10:49:33.612Z,21.09
2023-05-13T10:50:33.636Z,21.78
2023-05-13T10:51:33.681Z,21.19
2023-05-13T10:52:33.709Z,21.00
2023-05-13T10:53:40.914Z,21.00
2023-05-13T10:55:37.831Z,20.61
2023-05-13T10:56:37.844Z,20.71
2023-05-13T10:58:41.908Z,20.12
2023-05-13T10:59:41.938Z,20.03
2023-05-13T11:01:46.105Z,19.64
2023-05-13T11:02:46.203Z,19.84
2023-05-13T11:03:46.125Z,19.45
2023-05-13T11:04:46.110Z,19.55
2023-05-13T11:05:46.147Z,18.87
2023-05-13T11:06:46.186Z,19.26
2023-05-13T11:07:46.237Z,19.26
2023-05-13T11:08:46.272Z,19.45
2023-05-13T11:09:46.313Z,19.06
2023-05-13T11:10:46.361Z,19.35
2023-05-13T11:11:46.384Z,19.45
2023-05-13T11:12:46.426Z,19.55
2023-05-13T11:13:46.465Z,19.65
2023-05-13T11:14:46.507Z,17.90
2023-05-13T11:15:46.617Z,17.21
2023-05-13T11:16:46.637Z,18.38
2023-05-13T11:17:46.678Z,18.58
2023-05-13T11:18:46.711Z,18.68
2023-05-13T11:19:46.699Z,18.58
2023-05-13T11:20:52.126Z,18.48
2023-05-13T11:21:46.783Z,18.38
2023-05-13T11:22:46.825Z,18.68
2023-05-13T11:23:46.869Z,18.96
2023-05-13T11:24:46.902Z,18.96
2023-05-13T11:25:46.941Z,18.98
2023-05-13T11:26:46.993Z,19.27
2023-05-13T11:27:47.031Z,18.78
2023-05-13T11:28:47.073Z,18.79
2023-05-13T11:29:47.100Z,18.79
2023-05-13T11:30:47.145Z,18.60
2023-05-13T11:31:47.212Z,18.50
2023-05-13T11:32:47.250Z,18.88
2023-05-13T11:33:47.261Z,17.52
2023-05-13T11:34:47.304Z,17.91
2023-05-13T11:35:47.342Z,17.72
2023-05-13T11:36:47.414Z,17.82
2023-05-13T11:37:47.419Z,17.33
2023-05-13T11:38:47.465Z,17.03
2023-05-13T11:39:47.514Z,17.03
2023-05-13T11:40:47.542Z,18.00
2023-05-13T11:41:47.584Z,18.49
2023-05-13T11:42:47.664Z,18.19
2023-05-13T11:43:47.663Z,18.98
2023-05-13T11:44:47.716Z,19.17
2023-05-13T11:45:47.800Z,19.27
2023-05-13T11:46:47.789Z,19.18
2023-05-13T11:47:47.839Z,19.37
2023-05-13T11:48:47.858Z,19.18
2023-05-13T11:49:47.900Z,18.90
2023-05-13T11:50:47.971Z,18.80
2023-05-13T11:51:47.982Z,18.51
2023-05-13T11:52:48.019Z,18.32
2023-05-13T11:53:48.062Z,18.52
2023-05-13T11:54:48.100Z,17.92
2023-05-13T11:55:48.148Z,18.23
2023-05-13T11:56:48.183Z,18.12
2023-05-13T11:57:48.224Z,17.72
2023-05-13T11:58:48.282Z,18.21
2023-05-13T11:59:48.576Z,18.60
2023-05-13T12:00:48.375Z,18.70
2023-05-13T12:01:48.411Z,18.70
2023-05-13T12:02:48.544Z,18.51
2023-05-13T12:03:48.488Z,18.51
2023-05-13T12:04:48.575Z,18.60
2023-05-13T12:05:48.565Z,18.03
2023-05-13T12:06:48.585Z,18.42
2023-05-13T12:07:48.629Z,18.32
2023-05-13T12:08:48.667Z,18.52
2023-05-13T12:09:48.722Z,18.13
2023-05-13T12:10:48.788Z,17.44
2023-05-13T12:11:48.793Z,17.64
2023-05-13T12:12:48.830Z,17.74
2023-05-13T12:13:48.873Z,17.83
2023-05-13T12:14:48.919Z,16.96
2023-05-13T12:15:49.010Z,17.55
2023-05-13T12:16:48.998Z,16.86
2023-05-13T12:17:49.044Z,17.65
2023-05-13T12:18:49.128Z,17.94
2023-05-13T12:19:49.115Z,17.55
2023-05-13T12:20:49.159Z,17.55
2023-05-13T12:21:49.198Z,17.84
2023-05-13T12:22:49.242Z,17.74
2023-05-13T12:23:49.291Z,17.65
2023-05-13T12:24:49.322Z,18.24
2023-05-13T12:25:49.359Z,17.76
2023-05-13T12:26:49.408Z,17.46
2023-05-13T12:27:49.447Z,17.17
2023-05-13T12:28:49.479Z,17.36
2023-05-13T12:29:49.561Z,16.78
2023-05-13T12:30:49.560Z,17.27
2023-05-13T12:31:49.648Z,16.78
2023-05-13T12:32:49.678Z,16.88
2023-05-13T12:33:49.736Z,17.27
2023-05-13T12:34:49.731Z,16.97
2023-05-13T12:35:49.766Z,16.58
2023-05-13T12:36:49.865Z,16.58
2023-05-13T12:37:49.851Z,16.96
2023-05-13T12:38:49.887Z,16.86
2023-05-13T12:39:49.927Z,17.27
2023-05-13T12:40:49.966Z,17.56
2023-05-13T12:41:50.246Z,17.76
2023-05-13T12:42:50.050Z,18.15
2023-05-13T12:43:50.095Z,16.38
2023-05-13T12:44:50.135Z,16.58
2023-05-13T12:45:50.175Z,16.67
2023-05-13T12:46:50.245Z,17.17
2023-05-13T12:47:50.287Z,17.56
2023-05-13T12:48:50.297Z,17.46
2023-05-13T12:49:50.337Z,17.46
2023-05-13T12:50:50.376Z,17.76
2023-05-13T12:51:50.419Z,18.15
2023-05-13T12:52:50.456Z,18.15
2023-05-13T12:53:50.501Z,17.66
2023-05-13T12:54:50.548Z,17.74
2023-05-13T12:55:50.584Z,18.04
2023-05-13T12:56:50.623Z,18.23
2023-05-13T12:57:50.664Z,18.13
2023-05-13T12:58:50.710Z,18.62
2023-05-13T12:59:50.773Z,18.62
2023-05-13T13:00:50.824Z,18.80
2023-05-13T13:01:50.828Z,18.60
2023-05-13T13:02:50.928Z,18.12
2023-05-13T13:03:51.048Z,18.60
2023-05-13T13:04:50.951Z,18.90
2023-05-13T13:05:51.001Z,18.70
2023-05-13T13:06:51.036Z,18.52
2023-05-13T13:07:51.074Z,18.52
2023-05-13T13:08:51.142Z,18.62
2023-05-13T13:09:51.178Z,18.71
2023-05-13T13:10:51.208Z,18.13
2023-05-13T13:11:51.240Z,18.03
2023-05-13T13:12:51.311Z,18.62
2023-05-13T13:13:51.327Z,18.41
2023-05-13T13:14:51.359Z,18.41
2023-05-13T13:15:51.402Z,18.99
2023-05-13T13:16:51.496Z,19.18
2023-05-13T13:17:51.552Z,18.88
2023-05-13T13:18:53.453Z,19.27
2023-05-13T13:19:51.583Z,19.76
2023-05-13T13:20:51.612Z,19.67
2023-05-13T13:21:51.646Z,19.57
2023-05-13T13:22:51.686Z,19.37
2023-05-13T13:23:51.730Z,19.47
2023-05-13T13:24:51.769Z,19.95
2023-05-13T13:25:51.808Z,20.24
2023-05-13T13:26:51.849Z,19.85
2023-05-13T13:27:51.893Z,20.14
2023-05-13T13:28:51.936Z,20.63
2023-05-13T13:29:51.969Z,19.84
2023-05-13T13:30:52.021Z,20.04
2023-05-13T13:31:52.131Z,20.04
2023-05-13T13:32:52.133Z,20.72
2023-05-13T13:33:52.132Z,20.43
2023-05-13T13:34:52.174Z,19.75
2023-05-13T13:35:52.211Z,19.95
2023-05-13T13:36:52.251Z,19.65
2023-05-13T13:37:52.324Z,20.14
2023-05-13T13:38:52.332Z,20.14
2023-05-13T13:39:52.382Z,19.96
2023-05-13T13:40:52.416Z,19.18
2023-05-13T13:41:52.468Z,18.88
2023-05-13T13:42:52.498Z,19.85
2023-05-13T13:43:52.533Z,19.65
2023-05-13T13:44:52.571Z,19.95
2023-05-13T13:45:52.746Z,19.56
2023-05-13T13:46:52.666Z,19.46
2023-05-13T13:47:52.808Z,20.35
2023-05-13T13:48:52.744Z,20.06
2023-05-13T13:49:52.777Z,20.15
2023-05-13T13:50:53.087Z,19.67
2023-05-13T13:51:52.894Z,19.56
2023-05-13T13:52:52.900Z,20.06
2023-05-13T13:53:52.932Z,20.34
2023-05-13T13:54:52.972Z,19.86
2023-05-13T13:55:53.015Z,19.86
2023-05-13T13:56:53.068Z,19.76
2023-05-13T13:57:53.092Z,19.57
2023-05-13T13:58:53.133Z,19.57
2023-05-13T13:59:53.185Z,19.57
2023-05-13T14:00:53.227Z,20.06
2023-05-13T14:01:53.324Z,20.06
2023-05-13T14:02:53.404Z,19.27
2023-05-13T14:03:53.523Z,19.67
2023-05-13T14:04:53.374Z,19.67
2023-05-13T14:05:53.415Z,19.57
2023-05-13T14:06:53.466Z,19.37
2023-05-13T14:07:53.508Z,18.78
2023-05-13T14:08:53.531Z,18.77
2023-05-13T14:09:53.579Z,19.56
2023-05-13T14:10:53.613Z,19.65
2023-05-13T14:11:53.661Z,19.56
2023-05-13T14:12:53.715Z,19.37
2023-05-13T14:13:53.764Z,19.26
2023-05-13T14:14:53.801Z,19.55
2023-05-13T14:15:53.967Z,19.45
2023-05-13T14:16:53.856Z,19.84
2023-05-13T14:17:53.934Z,20.23
2023-05-13T14:18:54.007Z,20.04
2023-05-13T14:19:53.988Z,20.14
2023-05-13T14:20:54.023Z,20.04
2023-05-13T14:21:54.058Z,20.34
2023-05-13T14:22:54.119Z,20.83
2023-05-13T14:23:54.165Z,20.92
2023-05-13T14:24:54.195Z,20.73
2023-05-13T14:25:54.228Z,20.92
2023-05-13T14:26:54.266Z,20.73
2023-05-13T14:27:54.302Z,20.73
2023-05-13T14:28:54.344Z,20.74
2023-05-13T14:29:54.383Z,20.83
2023-05-13T14:30:54.434Z,20.74
2023-05-13T14:31:54.512Z,21.12
2023-05-13T14:32:54.602Z,21.12
2023-05-13T14:33:54.548Z,20.25
2023-05-13T14:34:54.583Z,20.34
2023-05-13T14:35:54.626Z,19.56
2023-05-13T14:36:54.664Z,19.94
2023-05-13T14:37:54.707Z,20.72
2023-05-13T14:38:54.749Z,20.62
2023-05-13T14:39:54.783Z,21.01
2023-05-13T14:40:54.823Z,20.81
2023-05-13T14:41:54.868Z,21.59
2023-05-13T14:42:54.904Z,21.59
2023-05-13T14:43:54.964Z,21.22
2023-05-13T14:44:54.987Z,21.60
2023-05-13T14:45:55.029Z,21.60
2023-05-13T14:46:55.102Z,21.80
2023-05-13T14:47:55.159Z,22.09
2023-05-13T14:48:55.145Z,21.89